createdAt,value
2019-03-28T00:06:11.837Z,96.40
2019-03-28T00:16:17.478Z,96.30
2019-03-28T00:26:29.902Z,95.90
2019-03-28T00:36:30.886Z,96.20
2019-03-28T00:46:36.428Z,95.60
2019-03-28T00:56:46.897Z,95.40
2019-03-28T01:06:49.078Z,94.70
2019-03-28T01:16:54.678Z,92.40
2019-03-28T01:27:00.410Z,92.50
2019-03-28T01:37:05.962Z,93.20
2019-03-28T01:47:11.597Z,94.50
2019-03-28T01:57:17.335Z,95.00
2019-03-28T02:07:22.877Z,94.20
2019-03-28T02:17:28.585Z,93.90
2019-03-28T02:27:34.141Z,96.10
2019-03-28T02:37:39.724Z,96.90
2019-03-28T02:47:45.229Z,97.30
2019-03-28T02:57:50.748Z,98.70
2019-03-28T03:07:57.284Z,99.90
2019-03-28T03:18:02.923Z,99.90
2019-03-28T03:28:08.510Z,99.90
2019-03-28T03:38:14.254Z,99.90
2019-03-28T03:48:19.884Z,99.90
2019-03-28T03:58:25.526Z,99.90
2019-03-28T04:08:31.119Z,99.90
2019-03-28T04:18:36.723Z,99.90
2019-03-28T04:28:42.273Z,99.90
2019-03-28T04:38:47.859Z,99.90
2019-03-28T04:48:53.365Z,99.90
2019-03-28T04:58:58.888Z,99.90
2019-03-28T05:09:05.917Z,99.90
2019-03-28T05:19:11.538Z,99.90
2019-03-28T05:29:17.071Z,99.90
2019-03-28T05:39:22.738Z,99.90
2019-03-28T05:49:28.278Z,99.90
2019-03-28T05:59:33.903Z,99.90
2019-03-28T06:09:40.365Z,99.90
2019-03-28T06:19:46.303Z,99.90
2019-03-28T06:29:57.491Z,99.90
2019-03-28T06:40:03.237Z,99.70
2019-03-28T06:50:09.479Z,99.10
2019-03-28T07:00:15.358Z,99.20
2019-03-28T07:10:21.052Z,99.60
2019-03-28T07:20:26.610Z,99.00
2019-03-28T07:30:34.249Z,98.40
2019-03-28T07:40:40.042Z,98.20
2019-03-28T07:50:45.639Z,96.70
2019-03-28T08:00:51.264Z,95.90
2019-03-28T08:10:56.769Z,96.60
2019-03-28T08:21:02.308Z,96.50
2019-03-28T08:31:07.832Z,96.70
2019-03-28T08:41:13.437Z,95.70
2019-03-28T08:51:18.927Z,95.30
2019-03-28T09:01:25.661Z,94.40
2019-03-28T09:11:31.190Z,94.70
2019-03-28T09:21:36.782Z,98.40
2019-03-28T09:31:42.378Z,99.40
2019-03-28T09:41:50.061Z,98.70
2019-03-28T09:52:05.454Z,97.20
2019-03-28T10:02:18.893Z,96.80
2019-03-28T10:12:24.692Z,97.20
2019-03-28T10:22:38.951Z,97.90
2019-03-28T10:32:46.190Z,97.00
2019-03-28T10:42:51.765Z,95.50
2019-03-28T10:52:57.538Z,92.90
2019-03-28T11:03:04.796Z,93.30
2019-03-28T11:13:10.966Z,95.00
2019-03-28T11:23:16.736Z,95.60
2019-03-28T11:33:22.479Z,96.50
2019-03-28T11:43:28.090Z,98.80
2019-03-28T11:53:33.805Z,99.80
2019-03-28T12:03:39.614Z,98.20
2019-03-28T12:13:45.409Z,98.20
2019-03-28T12:23:51.044Z,98.50
2019-03-28T12:33:56.726Z,97.90
2019-03-28T12:44:02.580Z,97.80
2019-03-28T12:54:08.317Z,98.60
2019-03-28T13:04:14.006Z,97.00
2019-03-28T13:14:19.748Z,98.40
2019-03-28T13:24:26.646Z,95.40
2019-03-28T13:34:32.323Z,95.20
2019-03-28T13:44:38.041Z,94.80
2019-03-28T13:54:46.011Z,94.90
2019-03-28T14:04:51.805Z,91.10
2019-03-28T14:14:57.492Z,90.00
2019-03-28T14:25:03.169Z,86.60
2019-03-28T14:35:09.338Z,93.10
2019-03-28T14:45:15.210Z,94.70
2019-03-28T14:55:20.941Z,94.10
2019-03-28T15:05:27.732Z,94.80
2019-03-28T15:15:33.490Z,95.80
2019-03-28T15:25:39.169Z,96.20
2019-03-28T15:35:45.032Z,96.60
2019-03-28T15:45:51.086Z,94.30
2019-03-28T15:55:57.952Z,94.00
2019-03-28T16:06:05.033Z,94.00
2019-03-28T16:16:10.895Z,95.10
2019-03-28T16:26:16.882Z,94.60
2019-03-28T16:36:22.999Z,94.50
2019-03-28T16:46:28.965Z,95.10
2019-03-28T16:56:34.925Z,96.00
2019-03-28T17:06:41.241Z,96.20
2019-03-28T17:16:47.411Z,96.20
2019-03-28T17:26:54.537Z,96.30
2019-03-28T17:37:02.341Z,96.90
2019-03-28T17:47:08.599Z,97.20
2019-03-28T17:57:14.721Z,97.70
2019-03-28T18:07:21.704Z,98.10
2019-03-28T18:17:27.857Z,99.10
2019-03-28T18:27:34.213Z,99.50
2019-03-28T18:38:16.943Z,99.70
2019-03-28T18:48:57.153Z,99.90
2019-03-28T18:59:32.753Z,99.90
2019-03-28T19:10:16.626Z,99.90
2019-03-28T19:31:39.936Z,99.90
2019-03-28T19:41:55.468Z,99.90
2019-03-28T19:52:17.060Z,99.90
2019-03-28T20:02:22.468Z,99.90
2019-03-28T20:12:41.411Z,99.90
2019-03-28T20:22:56.797Z,99.90
2019-03-28T20:43:39.699Z,99.90
2019-03-28T20:53:45.809Z,99.90
2019-03-28T21:03:51.930Z,99.90
2019-03-28T21:13:59.425Z,99.90
2019-03-28T21:24:05.464Z,99.90
2019-03-28T21:34:11.654Z,99.90
2019-03-28T21:44:17.636Z,99.90
2019-03-28T21:54:23.448Z,99.90
2019-03-28T22:04:29.962Z,99.90
2019-03-28T22:14:35.607Z,99.90
2019-03-28T22:24:41.319Z,99.90
2019-03-28T22:34:46.908Z,99.90
2019-03-28T22:44:52.549Z,99.90
2019-03-28T22:55:06.530Z,99.90
2019-03-28T23:05:12.792Z,99.90
2019-03-28T23:15:21.777Z,99.90
2019-03-28T23:25:26.826Z,99.90
2019-03-28T23:35:33.758Z,99.90
2019-03-28T23:45:39.470Z,99.90
2019-03-28T23:55:46.112Z,99.90
